createdAt,value
2022-09-13T00:03:42.732Z,10.05
2022-09-13T00:14:04.315Z,10.77
2022-09-13T00:24:25.792Z,11.50
2022-09-13T00:34:47.270Z,11.80
2022-09-13T00:45:12.156Z,11.13
2022-09-13T00:55:44.333Z,10.68
2022-09-13T01:06:11.616Z,11.50
2022-09-13T01:16:33.272Z,11.27
2022-09-13T01:27:05.061Z,11.25
2022-09-13T01:37:43.913Z,10.23
2022-09-13T01:48:17.325Z,9.85
2022-09-13T01:58:49.918Z,10.02
2022-09-13T02:09:21.203Z,9.07
2022-09-13T02:19:58.222Z,9.45
2022-09-13T02:30:21.073Z,10.23
2022-09-13T02:40:49.257Z,10.20
2022-09-13T02:51:10.691Z,9.90
2022-09-13T03:01:35.412Z,9.48
2022-09-13T03:12:24.976Z,10.43
2022-09-13T03:23:04.750Z,10.70
2022-09-13T03:33:44.274Z,10.57
2022-09-13T03:44:14.094Z,10.30
2022-09-13T03:54:38.623Z,10.38
2022-09-13T04:05:00.076Z,10.70
2022-09-13T04:15:21.894Z,11.02
2022-09-13T04:25:43.365Z,10.55
2022-09-13T04:36:04.949Z,11.90
2022-09-13T04:46:26.446Z,13.25
2022-09-13T04:56:48.802Z,12.40
2022-09-13T05:07:10.421Z,11.75
2022-09-13T05:17:32.089Z,12.55
2022-09-13T05:27:53.526Z,11.70
2022-09-13T05:38:14.982Z,9.52
2022-09-13T05:48:37.338Z,9.45
2022-09-13T05:58:59.193Z,11.43
2022-09-13T06:09:21.037Z,12.45
2022-09-13T06:19:42.624Z,12.48
2022-09-13T06:30:05.357Z,12.30
2022-09-13T06:40:26.883Z,12.27
2022-09-13T06:50:48.334Z,13.20
2022-09-13T07:01:20.129Z,12.50
2022-09-13T07:11:42.439Z,13.02
2022-09-13T07:22:04.906Z,11.70
2022-09-13T07:32:26.386Z,10.32
2022-09-13T07:42:47.919Z,7.20
2022-09-13T07:53:09.368Z,4.65
2022-09-13T08:03:31.406Z,2.65
2022-09-13T08:13:53.063Z,2.38
2022-09-13T08:24:21.291Z,2.17
2022-09-13T08:34:42.835Z,1.10
2022-09-13T08:45:04.567Z,1.02
2022-09-13T08:55:50.163Z,0.82
2022-09-13T09:06:17.099Z,0.85
2022-09-13T09:16:43.372Z,0.93
2022-09-13T09:27:15.731Z,0.77
2022-09-13T09:37:38.855Z,1.00
2022-09-13T09:48:09.399Z,0.70
2022-09-13T09:58:38.349Z,0.70
2022-09-13T10:09:02.710Z,1.20
2022-09-13T10:19:26.533Z,0.85
2022-09-13T10:29:51.995Z,0.88
2022-09-13T10:40:22.983Z,0.65
2022-09-13T10:51:05.903Z,0.70
2022-09-13T11:01:41.230Z,1.02
2022-09-13T11:12:18.534Z,0.70
2022-09-13T11:23:02.176Z,1.10
2022-09-13T11:33:53.252Z,1.05
2022-09-13T11:44:52.795Z,0.90
2022-09-13T11:55:18.838Z,0.90
2022-09-13T12:05:57.868Z,0.85
2022-09-13T12:16:48.782Z,0.70
2022-09-13T12:27:37.666Z,0.90
2022-09-13T12:38:11.796Z,0.77
2022-09-13T12:49:10.766Z,1.05
2022-09-13T12:59:53.400Z,0.90
2022-09-13T13:10:33.622Z,0.80
2022-09-13T13:20:55.014Z,0.40
2022-09-13T13:31:29.825Z,0.80
2022-09-13T13:42:01.625Z,0.88
2022-09-13T13:52:26.076Z,0.88
2022-09-13T14:02:50.492Z,0.70
